sensor_id;sensor_type;location;lat;lon;timestamp;temperature;humidity
14349;DHT22;7258;50.376;8.742;2023-05-15T00:01:20;10.90;99.90
14349;DHT22;7258;50.376;8.742;2023-05-15T00:03:23;10.80;99.90
14349;DHT22;7258;50.376;8.742;2023-05-15T00:05:27;10.70;99.90
14349;DHT22;7258;50.376;8.742;2023-05-15T00:07:30;10.70;99.90
14349;DHT22;7258;50.376;8.742;2023-05-15T00:09:33;10.60;99.90
14349;DHT22;7258;50.376;8.742;2023-05-15T00:11:39;10.60;99.90
14349;DHT22;7258;50.376;8.742;2023-05-15T00:13:47;10.50;99.90
14349;DHT22;7258;50.376;8.742;2023-05-15T00:15:53;10.50;99.90
14349;DHT22;7258;50.376;8.742;2023-05-15T00:17:56;10.40;99.90
14349;DHT22;7258;50.376;8.742;2023-05-15T00:19:59;10.40;99.90
14349;DHT22;7258;50.376;8.742;2023-05-15T00:22:02;10.40;99.90
14349;DHT22;7258;50.376;8.742;2023-05-15T00:24:05;10.40;99.90
14349;DHT22;7258;50.376;8.742;2023-05-15T00:26:08;10.30;99.90
14349;DHT22;7258;50.376;8.742;2023-05-15T00:28:12;10.30;99.90
14349;DHT22;7258;50.376;8.742;2023-05-15T00:30:15;10.30;99.90
14349;DHT22;7258;50.376;8.742;2023-05-15T00:32:19;10.30;99.90
14349;DHT22;7258;50.376;8.742;2023-05-15T00:34:24;10.30;99.90
14349;DHT22;7258;50.376;8.742;2023-05-15T00:36:40;10.20;99.90
14349;DHT22;7258;50.376;8.742;2023-05-15T00:38:43;10.20;99.90
14349;DHT22;7258;50.376;8.742;2023-05-15T00:40:48;10.20;99.90
14349;DHT22;7258;50.376;8.742;2023-05-15T00:42:52;10.10;99.90
14349;DHT22;7258;50.376;8.742;2023-05-15T00:44:56;10.10;99.90
14349;DHT22;7258;50.376;8.742;2023-05-15T00:47:00;10.00;99.90
14349;DHT22;7258;50.376;8.742;2023-05-15T00:49:05;10.00;99.90
14349;DHT22;7258;50.376;8.742;2023-05-15T00:51:13;10.00;99.90
14349;DHT22;7258;50.376;8.742;2023-05-15T00:53:17;10.00;99.90
14349;DHT22;7258;50.376;8.742;2023-05-15T00:55:20;10.00;99.90
14349;DHT22;7258;50.376;8.742;2023-05-15T00:57:24;9.90;99.90
14349;DHT22;7258;50.376;8.742;2023-05-15T00:59:29;9.90;99.90
14349;DHT22;7258;50.376;8.742;2023-05-15T01:01:33;9.90;99.90
14349;DHT22;7258;50.376;8.742;2023-05-15T01:03:37;9.80;99.90
14349;DHT22;7258;50.376;8.742;2023-05-15T01:05:42;9.80;99.90
14349;DHT22;7258;50.376;8.742;2023-05-15T01:07:50;9.70;99.90
14349;DHT22;7258;50.376;8.742;2023-05-15T01:09:55;9.60;99.90
14349;DHT22;7258;50.376;8.742;2023-05-15T01:11:58;9.60;99.90
14349;DHT22;7258;50.376;8.742;2023-05-15T01:14:03;9.60;99.90
14349;DHT22;7258;50.376;8.742;2023-05-15T01:16:07;9.60;99.90
14349;DHT22;7258;50.376;8.742;2023-05-15T01:18:10;9.60;99.90
14349;DHT22;7258;50.376;8.742;2023-05-15T01:20:14;9.60;99.90
14349;DHT22;7258;50.376;8.742;2023-05-15T01:22:38;9.60;99.90
14349;DHT22;7258;50.376;8.742;2023-05-15T01:27:28;9.70;99.90
14349;DHT22;7258;50.376;8.742;2023-05-15T01:29:36;9.70;99.90
14349;DHT22;7258;50.376;8.742;2023-05-15T01:31:43;9.70;99.90
14349;DHT22;7258;50.376;8.742;2023-05-15T01:33:53;9.70;99.90
14349;DHT22;7258;50.376;8.742;2023-05-15T01:36:00;9.60;99.90
14349;DHT22;7258;50.376;8.742;2023-05-15T01:38:12;9.60;99.90
14349;DHT22;7258;50.376;8.742;2023-05-15T01:40:17;9.60;99.90
14349;DHT22;7258;50.376;8.742;2023-05-15T01:42:21;9.50;99.90
14349;DHT22;7258;50.376;8.742;2023-05-15T01:44:30;9.50;99.90
14349;DHT22;7258;50.376;8.742;2023-05-15T01:46:37;9.40;99.90
14349;DHT22;7258;50.376;8.742;2023-05-15T01:48:43;9.40;99.90
14349;DHT22;7258;50.376;8.742;2023-05-15T01:50:48;9.40;99.90
14349;DHT22;7258;50.376;8.742;2023-05-15T01:52:56;9.30;99.90
14349;DHT22;7258;50.376;8.742;2023-05-15T01:55:01;9.30;99.90
14349;DHT22;7258;50.376;8.742;2023-05-15T01:57:04;9.30;99.90
14349;DHT22;7258;50.376;8.742;2023-05-15T01:59:08;9.30;99.90
14349;DHT22;7258;50.376;8.742;2023-05-15T02:01:14;9.20;99.90
14349;DHT22;7258;50.376;8.742;2023-05-15T02:03:18;9.30;99.90
14349;DHT22;7258;50.376;8.742;2023-05-15T02:05:22;9.20;99.90
14349;DHT22;7258;50.376;8.742;2023-05-15T02:07:34;9.20;99.90
14349;DHT22;7258;50.376;8.742;2023-05-15T02:09:37;9.20;99.90
14349;DHT22;7258;50.376;8.742;2023-05-15T02:11:41;9.10;99.90
14349;DHT22;7258;50.376;8.742;2023-05-15T02:13:44;9.10;99.90
14349;DHT22;7258;50.376;8.742;2023-05-15T02:15:47;9.10;99.90
14349;DHT22;7258;50.376;8.742;2023-05-15T02:17:51;9.10;99.90
14349;DHT22;7258;50.376;8.742;2023-05-15T02:19:54;9.00;99.90
14349;DHT22;7258;50.376;8.742;2023-05-15T02:21:57;9.00;99.90
14349;DHT22;7258;50.376;8.742;2023-05-15T02:24:00;9.00;99.90
14349;DHT22;7258;50.376;8.742;2023-05-15T02:26:13;8.90;99.90
14349;DHT22;7258;50.376;8.742;2023-05-15T02:28:25;8.90;99.90
14349;DHT22;7258;50.376;8.742;2023-05-15T02:30:34;8.90;99.90
14349;DHT22;7258;50.376;8.742;2023-05-15T02:32:44;8.80;99.90
14349;DHT22;7258;50.376;8.742;2023-05-15T02:34:57;8.80;99.90
14349;DHT22;7258;50.376;8.742;2023-05-15T02:37:05;8.80;99.90
14349;DHT22;7258;50.376;8.742;2023-05-15T02:39:13;8.70;99.90
14349;DHT22;7258;50.376;8.742;2023-05-15T02:41:17;8.70;99.90
14349;DHT22;7258;50.376;8.742;2023-05-15T02:43:24;8.70;99.90
14349;DHT22;7258;50.376;8.742;2023-05-15T02:45:28;8.70;99.90
14349;DHT22;7258;50.376;8.742;2023-05-15T02:47:32;8.70;99.90
14349;DHT22;7258;50.376;8.742;2023-05-15T02:49:35;8.70;99.90
14349;DHT22;7258;50.376;8.742;2023-05-15T02:51:41;8.60;99.90
14349;DHT22;7258;50.376;8.742;2023-05-15T02:53:44;8.60;99.90
14349;DHT22;7258;50.376;8.742;2023-05-15T02:55:47;8.60;99.90
14349;DHT22;7258;50.376;8.742;2023-05-15T02:57:50;8.60;99.90
14349;DHT22;7258;50.376;8.742;2023-05-15T02:59:54;8.50;99.90
14349;DHT22;7258;50.376;8.742;2023-05-15T03:01:58;8.50;99.90
14349;DHT22;7258;50.376;8.742;2023-05-15T03:04:01;8.50;99.90
14349;DHT22;7258;50.376;8.742;2023-05-15T03:06:04;8.50;99.90
14349;DHT22;7258;50.376;8.742;2023-05-15T03:08:08;8.50;99.90
14349;DHT22;7258;50.376;8.742;2023-05-15T03:10:11;8.40;99.90
14349;DHT22;7258;50.376;8.742;2023-05-15T03:12:14;8.40;99.90
14349;DHT22;7258;50.376;8.742;2023-05-15T03:14:17;8.40;99.90
14349;DHT22;7258;50.376;8.742;2023-05-15T03:16:20;8.40;99.90
14349;DHT22;7258;50.376;8.742;2023-05-15T03:18:23;8.40;99.90
14349;DHT22;7258;50.376;8.742;2023-05-15T03:20:26;8.30;99.90
14349;DHT22;7258;50.376;8.742;2023-05-15T03:22:29;8.30;99.90
14349;DHT22;7258;50.376;8.742;2023-05-15T03:24:33;8.30;99.90
14349;DHT22;7258;50.376;8.742;2023-05-15T03:26:36;8.30;99.90
14349;DHT22;7258;50.376;8.742;2023-05-15T03:28:41;8.30;99.90
14349;DHT22;7258;50.376;8.742;2023-05-15T03:30:43;8.20;99.90
14349;DHT22;7258;50.376;8.742;2023-05-15T03:32:46;8.30;99.90
14349;DHT22;7258;50.376;8.742;2023-05-15T03:34:50;8.30;99.90
14349;DHT22;7258;50.376;8.742;2023-05-15T03:36:53;8.20;99.90
14349;DHT22;7258;50.376;8.742;2023-05-15T03:38:56;8.30;99.90
14349;DHT22;7258;50.376;8.742;2023-05-15T03:41:00;8.30;99.90
14349;DHT22;7258;50.376;8.742;2023-05-15T03:43:03;8.30;99.90
14349;DHT22;7258;50.376;8.742;2023-05-15T03:45:07;8.20;99.90
14349;DHT22;7258;50.376;8.742;2023-05-15T03:47:10;8.30;99.90
14349;DHT22;7258;50.376;8.742;2023-05-15T03:49:13;8.30;99.90
14349;DHT22;7258;50.376;8.742;2023-05-15T03:51:16;8.30;99.90
14349;DHT22;7258;50.376;8.742;2023-05-15T03:53:19;8.30;99.90
14349;DHT22;7258;50.376;8.742;2023-05-15T03:55:22;8.30;99.90
14349;DHT22;7258;50.376;8.742;2023-05-15T03:57:27;8.30;99.90
14349;DHT22;7258;50.376;8.742;2023-05-15T03:59:30;8.30;99.90
14349;DHT22;7258;50.376;8.742;2023-05-15T04:01:32;8.30;99.90
14349;DHT22;7258;50.376;8.742;2023-05-15T04:03:51;8.30;99.90
14349;DHT22;7258;50.376;8.742;2023-05-15T04:05:54;8.40;99.90
14349;DHT22;7258;50.376;8.742;2023-05-15T04:07:57;8.40;99.90
14349;DHT22;7258;50.376;8.742;2023-05-15T04:10:00;8.50;99.90
14349;DHT22;7258;50.376;8.742;2023-05-15T04:12:04;8.50;99.90
14349;DHT22;7258;50.376;8.742;2023-05-15T04:14:08;8.60;99.90
14349;DHT22;7258;50.376;8.742;2023-05-15T04:16:11;8.70;99.90
14349;DHT22;7258;50.376;8.742;2023-05-15T04:18:15;8.70;99.90
14349;DHT22;7258;50.376;8.742;2023-05-15T04:20:19;8.70;99.90
14349;DHT22;7258;50.376;8.742;2023-05-15T04:22:22;8.80;99.90
14349;DHT22;7258;50.376;8.742;2023-05-15T04:24:25;8.80;99.90
14349;DHT22;7258;50.376;8.742;2023-05-15T04:26:28;8.90;99.90
14349;DHT22;7258;50.376;8.742;2023-05-15T04:28:32;8.90;99.90
14349;DHT22;7258;50.376;8.742;2023-05-15T04:30:36;8.90;99.90
14349;DHT22;7258;50.376;8.742;2023-05-15T04:32:39;8.90;99.90
14349;DHT22;7258;50.376;8.742;2023-05-15T04:34:43;8.90;99.90
14349;DHT22;7258;50.376;8.742;2023-05-15T04:36:48;8.90;99.90
14349;DHT22;7258;50.376;8.742;2023-05-15T04:38:51;9.00;99.90
14349;DHT22;7258;50.376;8.742;2023-05-15T04:40:54;9.00;99.90
14349;DHT22;7258;50.376;8.742;2023-05-15T04:42:57;9.10;99.90
14349;DHT22;7258;50.376;8.742;2023-05-15T04:45:01;9.10;99.90
14349;DHT22;7258;50.376;8.742;2023-05-15T04:47:05;9.20;99.90
14349;DHT22;7258;50.376;8.742;2023-05-15T04:49:08;9.20;99.90
14349;DHT22;7258;50.376;8.742;2023-05-15T04:51:11;9.30;99.90
14349;DHT22;7258;50.376;8.742;2023-05-15T04:53:14;9.30;99.90
14349;DHT22;7258;50.376;8.742;2023-05-15T04:55:17;9.40;99.90
14349;DHT22;7258;50.376;8.742;2023-05-15T04:57:20;9.40;99.90
14349;DHT22;7258;50.376;8.742;2023-05-15T04:59:23;9.50;99.90
14349;DHT22;7258;50.376;8.742;2023-05-15T05:01:28;9.50;99.90
14349;DHT22;7258;50.376;8.742;2023-05-15T05:03:32;9.60;99.90
14349;DHT22;7258;50.376;8.742;2023-05-15T05:05:35;9.60;99.90
14349;DHT22;7258;50.376;8.742;2023-05-15T05:07:39;9.70;99.90
14349;DHT22;7258;50.376;8.742;2023-05-15T05:09:43;9.70;99.90
14349;DHT22;7258;50.376;8.742;2023-05-15T05:11:50;9.80;99.90
14349;DHT22;7258;50.376;8.742;2023-05-15T05:13:53;9.90;99.90
14349;DHT22;7258;50.376;8.742;2023-05-15T05:15:56;10.00;99.90
14349;DHT22;7258;50.376;8.742;2023-05-15T05:17:59;10.10;99.90
14349;DHT22;7258;50.376;8.742;2023-05-15T05:20:05;10.10;99.90
14349;DHT22;7258;50.376;8.742;2023-05-15T05:22:13;10.20;99.90
14349;DHT22;7258;50.376;8.742;2023-05-15T05:24:16;10.30;99.90
14349;DHT22;7258;50.376;8.742;2023-05-15T05:26:19;10.30;99.90
14349;DHT22;7258;50.376;8.742;2023-05-15T05:28:22;10.40;99.90
14349;DHT22;7258;50.376;8.742;2023-05-15T05:30:26;10.50;99.90
14349;DHT22;7258;50.376;8.742;2023-05-15T05:32:29;10.50;99.90
14349;DHT22;7258;50.376;8.742;2023-05-15T05:34:32;10.60;99.90
14349;DHT22;7258;50.376;8.742;2023-05-15T05:36:36;10.70;99.90
14349;DHT22;7258;50.376;8.742;2023-05-15T05:38:39;10.80;99.90
14349;DHT22;7258;50.376;8.742;2023-05-15T05:40:42;10.90;99.90
14349;DHT22;7258;50.376;8.742;2023-05-15T05:42:45;11.10;99.90
14349;DHT22;7258;50.376;8.742;2023-05-15T05:44:47;11.20;99.90
14349;DHT22;7258;50.376;8.742;2023-05-15T05:46:51;11.30;99.90
14349;DHT22;7258;50.376;8.742;2023-05-15T05:48:54;11.50;99.90
14349;DHT22;7258;50.376;8.742;2023-05-15T05:50:57;11.60;99.90
14349;DHT22;7258;50.376;8.742;2023-05-15T05:53:01;11.80;99.90
14349;DHT22;7258;50.376;8.742;2023-05-15T05:55:05;11.90;99.90
14349;DHT22;7258;50.376;8.742;2023-05-15T05:57:08;12.00;99.90
14349;DHT22;7258;50.376;8.742;2023-05-15T05:59:11;12.10;99.90
14349;DHT22;7258;50.376;8.742;2023-05-15T06:01:14;12.30;99.90
14349;DHT22;7258;50.376;8.742;2023-05-15T06:03:17;12.50;99.90
14349;DHT22;7258;50.376;8.742;2023-05-15T06:05:20;12.70;99.90
14349;DHT22;7258;50.376;8.742;2023-05-15T06:07:24;12.80;99.90
14349;DHT22;7258;50.376;8.742;2023-05-15T06:09:28;12.90;99.90
14349;DHT22;7258;50.376;8.742;2023-05-15T06:11:32;13.00;99.90
14349;DHT22;7258;50.376;8.742;2023-05-15T06:13:35;13.10;99.90
14349;DHT22;7258;50.376;8.742;2023-05-15T06:15:38;13.20;99.90
14349;DHT22;7258;50.376;8.742;2023-05-15T06:17:41;13.30;99.90
14349;DHT22;7258;50.376;8.742;2023-05-15T06:19:46;13.40;99.90
14349;DHT22;7258;50.376;8.742;2023-05-15T06:21:49;13.50;99.90
14349;DHT22;7258;50.376;8.742;2023-05-15T06:23:52;13.70;99.90
14349;DHT22;7258;50.376;8.742;2023-05-15T06:25:56;13.80;99.90
14349;DHT22;7258;50.376;8.742;2023-05-15T06:27:59;13.90;99.90
14349;DHT22;7258;50.376;8.742;2023-05-15T06:30:02;14.10;99.90
14349;DHT22;7258;50.376;8.742;2023-05-15T06:32:06;14.30;99.90
14349;DHT22;7258;50.376;8.742;2023-05-15T06:34:09;14.50;99.90
14349;DHT22;7258;50.376;8.742;2023-05-15T06:36:11;14.70;99.90
14349;DHT22;7258;50.376;8.742;2023-05-15T06:38:14;14.80;99.90
14349;DHT22;7258;50.376;8.742;2023-05-15T06:40:17;15.00;99.90
14349;DHT22;7258;50.376;8.742;2023-05-15T06:42:22;15.10;99.90
14349;DHT22;7258;50.376;8.742;2023-05-15T06:44:25;15.30;99.90
14349;DHT22;7258;50.376;8.742;2023-05-15T06:46:28;15.40;99.90
14349;DHT22;7258;50.376;8.742;2023-05-15T06:48:31;15.60;99.90
14349;DHT22;7258;50.376;8.742;2023-05-15T06:50:34;15.70;99.90
14349;DHT22;7258;50.376;8.742;2023-05-15T06:52:36;15.90;99.90
14349;DHT22;7258;50.376;8.742;2023-05-15T06:54:39;15.90;99.90
14349;DHT22;7258;50.376;8.742;2023-05-15T06:56:43;16.00;99.90
14349;DHT22;7258;50.376;8.742;2023-05-15T06:58:48;16.00;99.90
14349;DHT22;7258;50.376;8.742;2023-05-15T07:00:51;16.10;99.90
14349;DHT22;7258;50.376;8.742;2023-05-15T07:02:56;16.20;99.90
14349;DHT22;7258;50.376;8.742;2023-05-15T07:05:00;16.10;99.90
14349;DHT22;7258;50.376;8.742;2023-05-15T07:07:03;16.20;99.90
14349;DHT22;7258;50.376;8.742;2023-05-15T07:09:06;16.30;99.90
14349;DHT22;7258;50.376;8.742;2023-05-15T07:11:09;16.40;99.90
14349;DHT22;7258;50.376;8.742;2023-05-15T07:13:12;16.40;99.90
14349;DHT22;7258;50.376;8.742;2023-05-15T07:15:17;16.50;99.90
14349;DHT22;7258;50.376;8.742;2023-05-15T07:17:20;16.60;99.90
14349;DHT22;7258;50.376;8.742;2023-05-15T07:19:23;16.60;99.90
14349;DHT22;7258;50.376;8.742;2023-05-15T07:21:26;16.70;99.90
14349;DHT22;7258;50.376;8.742;2023-05-15T07:23:29;16.70;99.90
14349;DHT22;7258;50.376;8.742;2023-05-15T07:25:32;16.80;99.90
14349;DHT22;7258;50.376;8.742;2023-05-15T07:27:35;16.80;99.90
14349;DHT22;7258;50.376;8.742;2023-05-15T07:29:37;16.90;99.90
14349;DHT22;7258;50.376;8.742;2023-05-15T07:31:42;16.90;99.90
14349;DHT22;7258;50.376;8.742;2023-05-15T07:33:45;17.00;99.90
14349;DHT22;7258;50.376;8.742;2023-05-15T07:35:49;17.10;99.90
14349;DHT22;7258;50.376;8.742;2023-05-15T07:37:52;17.20;99.90
14349;DHT22;7258;50.376;8.742;2023-05-15T07:39:55;17.20;99.90
14349;DHT22;7258;50.376;8.742;2023-05-15T07:41:58;17.30;99.90
14349;DHT22;7258;50.376;8.742;2023-05-15T07:44:01;17.40;99.90
14349;DHT22;7258;50.376;8.742;2023-05-15T07:46:04;17.50;99.90
14349;DHT22;7258;50.376;8.742;2023-05-15T07:48:16;17.50;99.90
14349;DHT22;7258;50.376;8.742;2023-05-15T07:50:19;17.60;99.90
14349;DHT22;7258;50.376;8.742;2023-05-15T07:52:22;17.60;99.90
14349;DHT22;7258;50.376;8.742;2023-05-15T07:54:24;17.70;99.90
14349;DHT22;7258;50.376;8.742;2023-05-15T07:56:27;17.70;99.90
14349;DHT22;7258;50.376;8.742;2023-05-15T07:58:30;17.80;99.90
14349;DHT22;7258;50.376;8.742;2023-05-15T08:00:36;17.90;99.90
14349;DHT22;7258;50.376;8.742;2023-05-15T08:02:39;17.90;99.90
14349;DHT22;7258;50.376;8.742;2023-05-15T08:04:44;18.00;99.90
14349;DHT22;7258;50.376;8.742;2023-05-15T08:06:47;18.00;99.90
14349;DHT22;7258;50.376;8.742;2023-05-15T08:08:50;18.00;99.90
14349;DHT22;7258;50.376;8.742;2023-05-15T08:10:53;18.10;99.90
14349;DHT22;7258;50.376;8.742;2023-05-15T08:12:56;18.20;99.90
14349;DHT22;7258;50.376;8.742;2023-05-15T08:14:59;18.30;99.90
14349;DHT22;7258;50.376;8.742;2023-05-15T08:17:02;18.40;99.90
14349;DHT22;7258;50.376;8.742;2023-05-15T08:19:05;18.30;99.90
14349;DHT22;7258;50.376;8.742;2023-05-15T08:21:09;18.30;99.90
14349;DHT22;7258;50.376;8.742;2023-05-15T08:23:12;18.40;99.90
14349;DHT22;7258;50.376;8.742;2023-05-15T08:25:15;18.50;99.90
14349;DHT22;7258;50.376;8.742;2023-05-15T08:27:18;18.60;99.90
14349;DHT22;7258;50.376;8.742;2023-05-15T08:29:21;18.80;99.90
14349;DHT22;7258;50.376;8.742;2023-05-15T08:31:24;18.80;99.90
14349;DHT22;7258;50.376;8.742;2023-05-15T08:33:27;18.70;99.90
14349;DHT22;7258;50.376;8.742;2023-05-15T08:35:30;18.70;99.90
14349;DHT22;7258;50.376;8.742;2023-05-15T08:37:35;18.60;99.60
14349;DHT22;7258;50.376;8.742;2023-05-15T08:39:37;18.60;99.90
14349;DHT22;7258;50.376;8.742;2023-05-15T08:41:46;18.70;99.90
14349;DHT22;7258;50.376;8.742;2023-05-15T08:43:51;18.80;99.90
14349;DHT22;7258;50.376;8.742;2023-05-15T08:45:55;18.90;99.40
14349;DHT22;7258;50.376;8.742;2023-05-15T08:47:59;19.10;99.30
14349;DHT22;7258;50.376;8.742;2023-05-15T08:50:05;19.40;99.90
14349;DHT22;7258;50.376;8.742;2023-05-15T08:52:09;19.50;99.10
14349;DHT22;7258;50.376;8.742;2023-05-15T08:54:13;19.60;98.90
14349;DHT22;7258;50.376;8.742;2023-05-15T08:56:17;19.60;98.70
14349;DHT22;7258;50.376;8.742;2023-05-15T08:58:20;19.70;99.30
14349;DHT22;7258;50.376;8.742;2023-05-15T09:00:27;19.80;99.10
14349;DHT22;7258;50.376;8.742;2023-05-15T09:02:30;19.70;98.80
14349;DHT22;7258;50.376;8.742;2023-05-15T09:04:33;19.70;99.20
14349;DHT22;7258;50.376;8.742;2023-05-15T09:06:37;19.50;99.60
14349;DHT22;7258;50.376;8.742;2023-05-15T09:08:42;19.60;99.80
14349;DHT22;7258;50.376;8.742;2023-05-15T09:10:47;19.80;99.80
14349;DHT22;7258;50.376;8.742;2023-05-15T09:12:51;20.00;99.90
14349;DHT22;7258;50.376;8.742;2023-05-15T09:15:08;20.10;99.50
14349;DHT22;7258;50.376;8.742;2023-05-15T09:17:11;20.10;98.60
14349;DHT22;7258;50.376;8.742;2023-05-15T09:19:14;19.60;98.70
14349;DHT22;7258;50.376;8.742;2023-05-15T09:21:24;19.50;99.20
14349;DHT22;7258;50.376;8.742;2023-05-15T09:23:27;19.40;99.50
14349;DHT22;7258;50.376;8.742;2023-05-15T09:25:37;19.40;99.70
14349;DHT22;7258;50.376;8.742;2023-05-15T09:27:43;19.40;99.30
14349;DHT22;7258;50.376;8.742;2023-05-15T09:29:46;19.40;99.50
14349;DHT22;7258;50.376;8.742;2023-05-15T09:31:52;19.30;99.40
14349;DHT22;7258;50.376;8.742;2023-05-15T09:33:59;19.30;99.30
14349;DHT22;7258;50.376;8.742;2023-05-15T09:36:06;19.40;99.90
14349;DHT22;7258;50.376;8.742;2023-05-15T09:38:12;19.70;99.90
14349;DHT22;7258;50.376;8.742;2023-05-15T09:40:18;19.90;99.50
14349;DHT22;7258;50.376;8.742;2023-05-15T09:42:23;20.20;98.80
14349;DHT22;7258;50.376;8.742;2023-05-15T09:44:27;20.40;98.20
14349;DHT22;7258;50.376;8.742;2023-05-15T09:46:34;20.40;98.50
14349;DHT22;7258;50.376;8.742;2023-05-15T09:48:37;20.10;98.70
14349;DHT22;7258;50.376;8.742;2023-05-15T09:50:41;20.10;99.20
14349;DHT22;7258;50.376;8.742;2023-05-15T09:52:44;20.20;98.20
14349;DHT22;7258;50.376;8.742;2023-05-15T09:54:48;20.10;98.90
14349;DHT22;7258;50.376;8.742;2023-05-15T09:56:52;20.10;99.10
14349;DHT22;7258;50.376;8.742;2023-05-15T09:58:57;20.30;99.10
14349;DHT22;7258;50.376;8.742;2023-05-15T10:01:01;20.30;98.10
14349;DHT22;7258;50.376;8.742;2023-05-15T10:03:06;20.10;98.60
14349;DHT22;7258;50.376;8.742;2023-05-15T10:05:10;20.30;98.70
14349;DHT22;7258;50.376;8.742;2023-05-15T10:07:26;20.70;97.60
14349;DHT22;7258;50.376;8.742;2023-05-15T10:09:29;21.00;97.00
14349;DHT22;7258;50.376;8.742;2023-05-15T10:11:33;21.50;96.60
14349;DHT22;7258;50.376;8.742;2023-05-15T10:13:37;21.80;94.70
14349;DHT22;7258;50.376;8.742;2023-05-15T10:15:40;21.90;94.50
14349;DHT22;7258;50.376;8.742;2023-05-15T10:17:46;21.80;95.50
14349;DHT22;7258;50.376;8.742;2023-05-15T10:19:50;21.80;96.30
14349;DHT22;7258;50.376;8.742;2023-05-15T10:21:59;21.40;96.70
14349;DHT22;7258;50.376;8.742;2023-05-15T10:24:03;20.90;96.90
14349;DHT22;7258;50.376;8.742;2023-05-15T10:26:12;20.70;97.00
14349;DHT22;7258;50.376;8.742;2023-05-15T10:28:16;20.80;97.80
14349;DHT22;7258;50.376;8.742;2023-05-15T10:30:21;20.40;98.00
14349;DHT22;7258;50.376;8.742;2023-05-15T10:32:25;20.50;98.40
14349;DHT22;7258;50.376;8.742;2023-05-15T10:34:30;20.70;97.40
14349;DHT22;7258;50.376;8.742;2023-05-15T10:36:34;20.90;96.30
14349;DHT22;7258;50.376;8.742;2023-05-15T10:38:38;21.10;96.90
14349;DHT22;7258;50.376;8.742;2023-05-15T10:40:42;21.30;97.00
14349;DHT22;7258;50.376;8.742;2023-05-15T10:42:46;21.50;97.30
14349;DHT22;7258;50.376;8.742;2023-05-15T10:44:49;21.60;96.70
14349;DHT22;7258;50.376;8.742;2023-05-15T10:46:54;21.30;95.30
14349;DHT22;7258;50.376;8.742;2023-05-15T10:48:57;21.10;95.80
14349;DHT22;7258;50.376;8.742;2023-05-15T10:51:02;20.90;96.70
14349;DHT22;7258;50.376;8.742;2023-05-15T10:53:05;20.90;97.60
14349;DHT22;7258;50.376;8.742;2023-05-15T10:55:15;20.70;98.10
14349;DHT22;7258;50.376;8.742;2023-05-15T10:57:19;20.60;97.30
14349;DHT22;7258;50.376;8.742;2023-05-15T10:59:30;20.40;98.40
14349;DHT22;7258;50.376;8.742;2023-05-15T11:01:35;20.20;98.60
14349;DHT22;7258;50.376;8.742;2023-05-15T11:03:38;20.00;99.10
14349;DHT22;7258;50.376;8.742;2023-05-15T11:06:08;19.90;99.40
14349;DHT22;7258;50.376;8.742;2023-05-15T11:08:23;20.00;99.10
14349;DHT22;7258;50.376;8.742;2023-05-15T11:10:45;20.00;99.80
14349;DHT22;7258;50.376;8.742;2023-05-15T11:12:55;19.80;99.90
14349;DHT22;7258;50.376;8.742;2023-05-15T11:15:26;19.60;99.90
14349;DHT22;7258;50.376;8.742;2023-05-15T11:17:31;19.50;99.90
14349;DHT22;7258;50.376;8.742;2023-05-15T11:19:53;19.30;99.90
14349;DHT22;7258;50.376;8.742;2023-05-15T11:22:00;19.10;99.90
14349;DHT22;7258;50.376;8.742;2023-05-15T11:24:04;19.00;99.90
14349;DHT22;7258;50.376;8.742;2023-05-15T11:26:08;18.90;99.90
14349;DHT22;7258;50.376;8.742;2023-05-15T11:28:21;18.70;99.90
14349;DHT22;7258;50.376;8.742;2023-05-15T11:30:34;18.60;99.90
14349;DHT22;7258;50.376;8.742;2023-05-15T11:32:47;18.10;99.90
14349;DHT22;7258;50.376;8.742;2023-05-15T11:34:50;17.60;99.90
14349;DHT22;7258;50.376;8.742;2023-05-15T11:36:53;17.10;99.90
14349;DHT22;7258;50.376;8.742;2023-05-15T11:38:58;16.90;99.90
14349;DHT22;7258;50.376;8.742;2023-05-15T11:41:01;16.80;99.90
14349;DHT22;7258;50.376;8.742;2023-05-15T11:43:06;16.80;99.90
14349;DHT22;7258;50.376;8.742;2023-05-15T11:45:10;16.90;99.90
14349;DHT22;7258;50.376;8.742;2023-05-15T11:47:14;17.20;99.90
14349;DHT22;7258;50.376;8.742;2023-05-15T11:49:18;17.50;99.90
14349;DHT22;7258;50.376;8.742;2023-05-15T11:51:24;17.70;99.90
14349;DHT22;7258;50.376;8.742;2023-05-15T11:53:29;18.00;99.90
14349;DHT22;7258;50.376;8.742;2023-05-15T11:55:35;18.30;99.90
14349;DHT22;7258;50.376;8.742;2023-05-15T11:57:39;18.50;99.90
14349;DHT22;7258;50.376;8.742;2023-05-15T11:59:43;18.80;99.90
14349;DHT22;7258;50.376;8.742;2023-05-15T12:01:46;19.10;99.90
14349;DHT22;7258;50.376;8.742;2023-05-15T12:03:50;19.50;99.90
14349;DHT22;7258;50.376;8.742;2023-05-15T12:05:56;19.70;99.90
14349;DHT22;7258;50.376;8.742;2023-05-15T12:08:01;19.70;99.90
14349;DHT22;7258;50.376;8.742;2023-05-15T12:10:05;19.70;99.90
14349;DHT22;7258;50.376;8.742;2023-05-15T12:12:13;19.80;99.90
14349;DHT22;7258;50.376;8.742;2023-05-15T12:14:15;19.90;99.90
14349;DHT22;7258;50.376;8.742;2023-05-15T12:16:23;20.00;99.90
14349;DHT22;7258;50.376;8.742;2023-05-15T12:18:26;20.40;99.90
14349;DHT22;7258;50.376;8.742;2023-05-15T12:20:32;20.70;99.90
14349;DHT22;7258;50.376;8.742;2023-05-15T12:22:36;20.90;99.90
14349;DHT22;7258;50.376;8.742;2023-05-15T12:24:39;21.40;99.90
14349;DHT22;7258;50.376;8.742;2023-05-15T12:26:42;21.60;99.90
14349;DHT22;7258;50.376;8.742;2023-05-15T12:28:47;21.80;99.90
14349;DHT22;7258;50.376;8.742;2023-05-15T12:30:50;22.00;99.20
14349;DHT22;7258;50.376;8.742;2023-05-15T12:32:53;21.90;98.10
14349;DHT22;7258;50.376;8.742;2023-05-15T12:34:56;21.80;98.30
14349;DHT22;7258;50.376;8.742;2023-05-15T12:36:59;21.80;98.20
14349;DHT22;7258;50.376;8.742;2023-05-15T12:39:04;21.60;97.70
14349;DHT22;7258;50.376;8.742;2023-05-15T12:41:10;21.50;98.20
14349;DHT22;7258;50.376;8.742;2023-05-15T12:43:13;21.40;98.80
14349;DHT22;7258;50.376;8.742;2023-05-15T12:45:18;21.50;99.10
14349;DHT22;7258;50.376;8.742;2023-05-15T12:47:22;21.50;97.70
14349;DHT22;7258;50.376;8.742;2023-05-15T12:49:26;21.60;97.60
14349;DHT22;7258;50.376;8.742;2023-05-15T12:51:29;21.80;97.50
14349;DHT22;7258;50.376;8.742;2023-05-15T12:53:34;21.90;97.30
14349;DHT22;7258;50.376;8.742;2023-05-15T12:55:38;22.30;97.00
14349;DHT22;7258;50.376;8.742;2023-05-15T12:57:43;22.70;96.20
14349;DHT22;7258;50.376;8.742;2023-05-15T12:59:46;23.10;95.20
14349;DHT22;7258;50.376;8.742;2023-05-15T13:01:50;23.40;94.40
14349;DHT22;7258;50.376;8.742;2023-05-15T13:03:53;23.60;94.30
14349;DHT22;7258;50.376;8.742;2023-05-15T13:05:56;23.90;94.10
14349;DHT22;7258;50.376;8.742;2023-05-15T13:08:00;24.10;92.90
14349;DHT22;7258;50.376;8.742;2023-05-15T13:10:07;24.00;92.00
14349;DHT22;7258;50.376;8.742;2023-05-15T13:12:11;23.70;92.10
14349;DHT22;7258;50.376;8.742;2023-05-15T13:14:16;22.80;92.90
14349;DHT22;7258;50.376;8.742;2023-05-15T13:16:21;21.80;94.60
14349;DHT22;7258;50.376;8.742;2023-05-15T13:18:27;20.80;95.30
14349;DHT22;7258;50.376;8.742;2023-05-15T13:20:32;19.90;97.10
14349;DHT22;7258;50.376;8.742;2023-05-15T13:22:35;19.30;97.10
14349;DHT22;7258;50.376;8.742;2023-05-15T13:24:38;19.00;97.70
14349;DHT22;7258;50.376;8.742;2023-05-15T13:26:41;18.90;97.80